Latest Weather Observations for Campania

IDT60801

Issued at 12:31 pm EST Saturday 23 May 2015 (issued every 30 minutes, with the page automatically refreshed every 10 minutes)

About weather observations | Map of weather stations | Latest weather observations for TAS | Other Formats
Station Details ID: 094212 Name: CAMPANIA (KINCORA) Lat: -42.69 Lon: 147.43 Height: 45.0 m
Data from the previous 72 hours. | See also: Recent months at Campania
Date/Time
EST
Temp
°C
App
Temp
°C
Dew
Point
Rel
Hum
%
Delta-T
°C
Wind Press
QNH
hPa
Press
MSL
hPa
Rain
since 9 am
mm
Dir
 
Spd
km/h
Gust
km/h
Spd
kts
Gust
kts
23/12:30pm 13.1 8.5 3.5 52 4.3 W 17 30 9 16 - - 0.0
23/12:00pm 13.2 8.1 4.1 54 4.1 WNW 20 33 11 18 - - 0.0
23/11:30am 12.2 7.0 3.4 55 3.9 WNW 20 33 11 18 - - 0.0
23/11:00am 11.9 7.6 3.2 55 3.8 W 15 33 8 18 - - 0.0
23/10:30am 11.2 5.9 3.0 57 3.6 W 20 33 11 18 - - 0.0
23/10:00am 10.9 4.5 3.0 58 3.4 W 26 43 14 23 - - 0.0
23/09:30am 10.3 4.3 3.1 61 3.1 W 24 35 13 19 - - 0.0
23/09:00am 10.2 4.5 3.0 61 3.1 W 22 33 12 18 - - 0.0
23/08:30am 9.4 5.4 2.9 64 2.8 WNW 13 19 7 10 - - 0.0
23/08:00am 8.6 3.5 2.8 67 2.5 WNW 19 26 10 14 - - 0.0
23/07:30am 6.8 3.5 2.5 74 1.8 N 9 15 5 8 - - 0.0
23/07:00am 6.0 2.3 2.1 76 1.6 N 11 17 6 9 - - 0.0
23/06:30am 4.8 1.7 1.3 78 1.4 N 7 11 4 6 - - 0.0
23/06:00am 4.3 0.5 1.5 82 1.1 NNE 11 19 6 10 - - 0.0
23/05:30am 5.7 1.6 2.2 78 1.4 N 13 17 7 9 - - 0.0
23/05:00am 3.0 -0.5 1.2 88 0.7 N 9 13 5 7 - - 0.0
23/04:30am 3.0 -0.9 1.4 89 0.6 NW 11 13 6 7 - - 0.0
23/04:00am 4.5 1.5 2.0 84 1.0 N 7 11 4 6 - - 0.0
23/03:30am 4.4 0.5 1.3 80 1.2 N 11 13 6 7 - - 0.0
23/03:00am 6.2 2.2 2.7 78 1.4 NNW 13 15 7 8 - - 0.0
23/02:30am 7.1 3.1 3.0 75 1.7 NNW 13 19 7 10 - - 0.0
23/02:00am 6.5 2.1 2.6 76 1.6 N 15 19 8 10 - - 0.0
23/01:30am 6.0 2.3 2.3 77 1.5 N 11 15 6 8 - - 0.0
23/01:00am 7.4 3.2 3.6 77 1.6 N 15 17 8 9 - - 0.0
23/12:30am 6.8 2.5 3.4 79 1.4 N 15 19 8 10 - - 0.0
23/12:00am 5.2 1.6 2.9 85 0.9 N 11 15 6 8 - - 0.0
 
Date/Time
EST
Temp
°C
App
Temp
°C
Dew
Point
Rel
Hum
%
Delta-T
°C
Wind Press
QNH
hPa
Press
MSL
hPa
Rain
since 9 am
mm
Dir
 
Spd
km/h
Gust
km/h
Spd
kts
Gust
kts
22/11:30pm 5.2 1.9 2.2 81 1.2 N 9 15 5 8 - - 0.0
22/11:00pm 6.0 2.2 1.9 75 1.7 NW 11 22 6 12 - - 0.0
22/10:30pm 7.0 3.4 3.1 76 1.6 WNW 11 19 6 10 - - 0.0
22/10:00pm 4.6 1.3 2.3 85 0.9 N 9 11 5 6 - - 0.0
22/09:30pm 5.9 2.6 2.4 78 1.4 N 9 13 5 7 - - 0.0
22/09:00pm 8.3 5.3 4.1 75 1.8 NW 9 15 5 8 - - 0.0
22/08:30pm 7.2 4.2 1.9 69 2.2 NW 7 13 4 7 - - 0.0
22/08:00pm 9.0 5.1 3.4 68 2.4 WNW 13 17 7 9 - - 0.0
22/07:30pm 6.6 2.6 2.9 77 1.5 WNW 13 17 7 9 - - 0.0
22/07:00pm 6.5 2.8 2.2 74 1.8 N 11 15 6 8 - - 0.0
22/06:30pm 9.3 4.9 2.9 64 2.7 W 15 19 8 10 - - 0.0
22/06:00pm 8.6 5.6 2.2 64 2.7 WNW 7 13 4 7 - - 0.0
22/05:30pm 10.1 6.0 2.5 59 3.2 W 13 20 7 11 - - 0.0
22/05:00pm 10.8 6.3 2.4 56 3.6 W 15 20 8 11 - - 0.0
22/04:30pm 11.7 6.5 2.7 54 3.9 W 19 26 10 14 - - 0.0
22/04:00pm 12.2 6.9 3.2 54 4.0 W 20 32 11 17 - - 0.0
22/03:30pm 12.9 8.2 3.0 51 4.4 WNW 17 24 9 13 - - 0.0
22/03:00pm 13.1 7.5 3.2 51 4.4 W 22 35 12 19 - - 0.0
22/02:30pm 13.2 7.1 3.0 50 4.5 W 24 35 13 19 - - 0.0
22/02:00pm 13.0 7.4 3.4 52 4.3 WNW 22 35 12 19 - - 0.0
22/01:30pm 12.9 7.3 3.3 52 4.3 WNW 22 33 12 18 - - 0.0
22/01:00pm 13.2 8.7 4.1 54 4.1 WNW 17 24 9 13 - - 0.0
22/12:30pm 12.6 7.0 3.5 54 4.1 WNW 22 33 12 18 - - 0.0
22/12:00pm 12.7 8.1 3.6 54 4.1 WNW 17 26 9 14 - - 0.0
22/11:30am 12.2 7.1 3.2 54 4.0 WNW 19 30 10 16 - - 0.0
22/11:00am 11.6 7.6 2.6 54 3.9 WNW 13 19 7 10 - - 0.0
22/10:30am 11.3 7.3 2.9 56 3.7 WNW 13 20 7 11 - - 0.0
22/10:00am 10.6 6.2 2.7 58 3.4 WNW 15 28 8 15 - - 0.0
22/09:30am 10.1 6.9 3.2 62 3.0 WNW 9 20 5 11 - - 0.0
22/09:00am 7.8 5.0 2.9 71 2.1 NNW 7 11 4 6 - - 0.0
22/08:30am 6.9 4.2 3.7 80 1.4 NNW 7 7 4 4 - - 0.0
22/08:00am 6.8 4.0 3.1 77 1.6 NW 7 9 4 5 - - 0.0
22/07:30am 6.8 4.6 3.1 77 1.6 WNW 4 7 2 4 - - 0.0
22/07:00am 6.8 3.6 3.2 78 1.5 NW 9 11 5 6 - - 0.0
22/06:30am 7.4 4.4 2.3 70 2.1 WNW 7 9 4 5 - - 0.0
22/06:00am 7.9 4.6 2.4 68 2.3 WNW 9 13 5 7 - - 0.0
22/05:30am 8.4 4.7 2.2 65 2.6 W 11 20 6 11 - - 0.0
22/05:00am 8.1 4.8 2.4 67 2.4 W 9 15 5 8 - - 0.0
22/04:30am 6.7 4.1 3.1 78 1.5 W 6 9 3 5 - - 0.0
22/04:00am 7.0 4.4 3.3 77 1.6 NNW 6 7 3 4 - - 0.0
22/03:30am 7.9 4.7 3.0 71 2.1 NW 9 13 5 7 - - 0.0
22/03:00am 8.0 4.8 3.3 72 2.0 WNW 9 13 5 7 - - 0.0
22/02:30am 8.7 5.3 2.1 63 2.8 W 9 17 5 9 - - 0.0
22/02:00am 8.6 4.9 2.6 66 2.5 WSW 11 13 6 7 - - 0.0
22/01:30am 8.7 5.8 2.7 66 2.5 WSW 7 9 4 5 - - 0.0
22/01:00am 9.0 6.0 2.3 63 2.8 SSW 7 13 4 7 - - 0.0
22/12:30am 8.9 4.9 2.9 66 2.6 SW 13 20 7 11 - - 0.0
22/12:00am 8.6 4.8 4.0 73 2.0 WSW 13 17 7 9 - - 0.0
 
Date/Time
EST
Temp
°C
App
Temp
°C
Dew
Point
Rel
Hum
%
Delta-T
°C
Wind Press
QNH
hPa
Press
MSL
hPa
Rain
since 9 am
mm
Dir
 
Spd
km/h
Gust
km/h
Spd
kts
Gust
kts
21/11:30pm 8.5 5.2 4.7 77 1.7 WSW 11 15 6 8 - - 0.0
21/11:00pm 7.4 5.1 5.5 88 0.8 NNW 7 9 4 5 - - 0.0
21/10:30pm 7.5 5.2 5.6 88 0.9 NNE 7 9 4 5 - - 0.0
21/10:00pm 7.7 5.4 5.7 87 0.9 NNE 7 9 4 5 - - 0.0
21/09:30pm 7.7 6.7 5.5 86 1.0 CALM 0 0 0 0 - - 0.0
21/09:00pm 7.8 5.7 5.6 86 1.0 NNW 6 6 3 3 - - 0.0
21/08:30pm 7.7 6.7 5.5 86 1.0 CALM 0 0 0 0 - - 0.0
21/08:00pm 7.9 6.9 5.5 85 1.1 CALM 0 0 0 0 - - 0.0
21/07:30pm 8.2 7.1 5.3 82 1.3 CALM 0 0 0 0 - - 0.0
21/07:00pm 8.2 6.4 5.3 82 1.3 NW 4 6 2 3 - - 0.0
21/06:30pm 8.3 6.2 5.6 83 1.2 NW 6 7 3 4 - - 0.0
21/06:00pm 8.8 7.7 5.0 77 1.7 CALM 0 0 0 0 - - 0.0
21/05:30pm 8.8 7.7 5.2 78 1.6 CALM 0 6 0 3 - - 0.0
21/05:00pm 9.4 7.1 4.6 72 2.1 SSE 6 7 3 4 - - 0.0
21/04:30pm 9.7 6.8 4.5 70 2.3 S 9 13 5 7 - - 0.0
21/04:00pm 10.0 5.9 4.2 67 2.6 SW 15 19 8 10 - - 0.0
21/03:30pm 10.1 5.3 4.7 69 2.4 S 19 22 10 12 - - 0.0
21/03:00pm 10.5 6.1 4.9 68 2.5 SSE 17 22 9 12 - - 0.0
21/02:30pm 11.1 5.9 2.4 55 3.7 S 19 24 10 13 - - 0.0
21/02:00pm 11.4 7.7 2.4 54 3.9 SW 11 20 6 11 - - 0.0
21/01:30pm 11.1 6.3 2.4 55 3.7 SSW 17 22 9 12 - - 0.0
21/01:00pm 11.1 6.0 2.9 57 3.6 SSW 19 26 10 14 - - 0.0
21/12:30pm 10.8 6.2 3.6 61 3.2 SSE 17 24 9 13 - - 0.0
21/12:00pm 10.7 6.7 4.8 67 2.7 S 15 20 8 11 - - 0.0
21/11:30am 10.4 6.9 5.4 71 2.3 SSW 13 19 7 10 - - 0.0
21/11:00am 9.6 7.4 6.3 80 1.5 WSW 7 11 4 6 - - 0.0
21/10:30am 9.2 6.9 5.8 79 1.6 ESE 7 9 4 5 - - 0.0
21/10:00am 8.9 7.1 5.6 80 1.5 NE 4 9 2 5 - - 0.0
21/09:30am 8.3 5.9 5.4 82 1.3 W 7 9 4 5 - - 0.0
21/09:00am 7.0 3.9 5.6 91 0.6 NNE 11 13 6 7 - - 0.4
21/08:30am 6.2 3.0 5.0 92 0.5 NNE 11 15 6 8 - - 0.4
21/08:00am 5.3 2.0 4.3 93 0.4 N 11 15 6 8 - - 0.4
21/07:30am 5.5 1.8 4.3 92 0.5 N 13 15 7 8 - - 0.4
21/07:00am 5.3 1.9 4.1 92 0.5 N 11 15 6 8 - - 0.4
21/06:30am 4.6 2.0 3.3 91 0.5 N 6 9 3 5 - - 0.4
21/06:00am 3.9 2.3 2.4 90 0.6 CALM 0 7 0 4 - - 0.4
21/05:30am 3.5 0.7 2.0 90 0.6 NW 6 9 3 5 - - 0.4
21/05:00am 3.1 0.6 1.5 89 0.6 SE 4 9 2 5 - - 0.4
21/04:30am 2.8 -1.0 1.5 91 0.5 NNE 11 13 6 7 - - 0.4
21/04:00am 3.1 -1.1 1.6 90 0.6 NNE 13 15 7 8 - - 0.4
21/03:30am 3.6 -0.1 2.1 90 0.6 NNE 11 15 6 8 - - 0.4
21/03:00am 3.7 -0.4 2.1 89 0.6 NNE 13 15 7 8 - - 0.4
21/02:30am 3.6 -0.9 2.3 91 0.5 NNE 15 19 8 10 - - 0.4
21/02:00am 3.3 -0.1 1.7 89 0.6 N 9 11 5 6 - - 0.4
21/01:30am 4.5 0.8 2.4 86 0.8 N 11 15 6 8 - - 0.4
21/01:00am 6.1 2.1 2.6 78 1.4 N 13 15 7 8 - - 0.4
21/12:30am 6.5 2.1 2.8 77 1.5 N 15 19 8 10 - - 0.4
21/12:00am 6.8 2.6 3.6 80 1.4 NNW 15 19 8 10 - - 0.4
 
Date/Time
EST
Temp
°C
App
Temp
°C
Dew
Point
Rel
Hum
%
Delta-T
°C
Wind Press
QNH
hPa
Press
MSL
hPa
Rain
since 9 am
mm
Dir
 
Spd
km/h
Gust
km/h
Spd
kts
Gust
kts
20/11:30pm 7.3 6.0 6.1 92 0.5 NNW 2 6 1 3 - - 0.4
20/11:00pm 7.8 5.8 6.9 94 0.4 NW 7 11 4 6 - - 0.4
20/10:30pm 7.7 7.0 6.8 94 0.4 CALM 0 0 0 0 - - 0.4
20/10:00pm 7.8 7.1 6.9 94 0.4 CALM 0 0 0 0 - - 0.4
20/09:30pm 7.8 7.1 7.1 95 0.3 CALM 0 0 0 0 - - 0.4
20/09:00pm 7.7 5.7 7.0 95 0.3 SSW 7 9 4 5 - - 0.4
20/08:30pm 7.9 6.1 7.3 96 0.3 WNW 6 6 3 3 - - 0.2
20/08:00pm 7.9 6.9 7.3 96 0.3 NNW 2 6 1 3 - - 0.2
20/07:30pm 7.9 6.1 7.3 96 0.3 SSW 6 7 3 4 - - 0.2
20/07:00pm 7.9 7.3 7.3 96 0.3 CALM 0 0 0 0 - - 0.2
20/06:30pm 7.9 5.9 7.1 95 0.4 SE 7 9 4 5 - - 0.2
20/06:00pm 7.9 5.9 7.1 95 0.4 ESE 7 11 4 6 - - 0.2
20/05:30pm 8.1 5.4 7.2 94 0.4 SSE 11 20 6 11 - - 0.0
20/05:00pm 9.2 8.6 7.6 90 0.8 CALM 0 0 0 0 - - 0.0
20/04:30pm 9.2 8.6 7.5 89 0.8 CALM 0 0 0 0 - - 0.0
20/04:00pm 9.2 6.9 7.3 88 0.9 S 9 13 5 7 - - 0.0
20/03:30pm 10.0 6.8 6.7 80 1.5 SSE 13 19 7 10 - - 0.0
20/03:00pm 10.3 7.1 6.8 79 1.7 SSE 13 15 7 8 - - 0.0
20/02:30pm 10.7 7.9 6.8 77 1.8 SSE 11 17 6 9 - - 0.0
20/02:00pm 10.6 7.7 6.6 76 1.9 SSE 11 15 6 8 - - 0.0
20/01:30pm 10.4 6.6 6.0 74 2.0 S 15 20 8 11 - - 0.0
20/01:00pm 10.4 6.7 6.5 77 1.8 S 15 19 8 10 - - 0.0

Other Formats:

Comma delimited format used in spreadsheet applications
http://www.bom.gov.au/fwo/IDT60801/IDT60801.95972.axf

JavaScript Object Notation format (JSON) in row-major order
http://www.bom.gov.au/fwo/IDT60801/IDT60801.95972.json